createdAt,value
2019-04-10T00:00:47.810Z,21.40
2019-04-10T00:03:28.132Z,21.40
2019-04-10T00:05:47.969Z,21.40
2019-04-10T00:08:17.768Z,21.40
2019-04-10T00:10:46.235Z,21.30
2019-04-10T00:13:14.528Z,21.30
2019-04-10T00:15:42.831Z,21.30
2019-04-10T00:18:11.393Z,21.30
2019-04-10T00:20:40.601Z,21.30
2019-04-10T00:23:09.015Z,21.30
2019-04-10T00:25:37.303Z,21.30
2019-04-10T00:28:05.602Z,21.30
2019-04-10T00:30:33.886Z,21.30
2019-04-10T00:33:02.721Z,21.30
2019-04-10T00:35:31.746Z,21.30
2019-04-10T00:38:00.178Z,21.20
2019-04-10T00:40:28.503Z,21.20
2019-04-10T00:42:57.161Z,21.20
2019-04-10T00:45:27.155Z,21.20
2019-04-10T00:47:55.834Z,21.20
2019-04-10T00:50:24.498Z,21.20
2019-04-10T00:52:52.910Z,21.20
2019-04-10T00:55:21.797Z,21.20
2019-04-10T00:57:50.263Z,21.20
2019-04-10T01:00:19.104Z,21.20
2019-04-10T01:02:47.848Z,21.20
2019-04-10T01:05:17.309Z,21.20
2019-04-10T01:07:46.991Z,21.20
2019-04-10T01:10:15.574Z,21.20
2019-04-10T01:12:44.085Z,21.10
2019-04-10T01:15:12.440Z,21.20
2019-04-10T01:17:40.739Z,21.20
2019-04-10T01:20:09.181Z,21.10
2019-04-10T01:22:37.716Z,21.20
2019-04-10T01:25:06.743Z,21.20
2019-04-10T01:27:36.144Z,21.20
2019-04-10T01:30:07.149Z,21.20
2019-04-10T01:32:36.412Z,21.10
2019-04-10T01:35:06.392Z,21.10
2019-04-10T01:37:46.649Z,21.10
2019-04-10T01:40:06.645Z,21.10
2019-04-10T01:42:35.157Z,21.10
2019-04-10T01:45:04.949Z,21.10
2019-04-10T01:47:33.730Z,21.10
2019-04-10T01:50:02.274Z,21.10
2019-04-10T01:52:31.131Z,21.10
2019-04-10T01:54:59.747Z,21.10
2019-04-10T01:57:28.449Z,21.10
2019-04-10T01:59:57.156Z,21.10
2019-04-10T02:02:27.371Z,21.10
2019-04-10T02:04:56.772Z,21.00
2019-04-10T02:07:26.403Z,21.00
2019-04-10T02:09:56.037Z,21.00
2019-04-10T02:12:24.634Z,21.00
2019-04-10T02:14:52.910Z,21.00
2019-04-10T02:17:22.285Z,21.00
2019-04-10T02:19:50.956Z,21.00
2019-04-10T02:22:20.414Z,21.00
2019-04-10T02:24:49.356Z,21.00
2019-04-10T02:27:18.299Z,21.00
2019-04-10T02:29:46.845Z,20.90
2019-04-10T02:32:16.511Z,20.90
2019-04-10T02:34:46.846Z,20.90
2019-04-10T02:37:15.387Z,20.90
2019-04-10T02:39:47.906Z,21.00
2019-04-10T02:42:14.391Z,20.90
2019-04-10T02:44:44.021Z,20.90
2019-04-10T02:47:13.101Z,20.90
2019-04-10T02:49:42.698Z,20.90
2019-04-10T02:52:12.825Z,20.90
2019-04-10T02:54:41.847Z,21.00
2019-04-10T02:57:11.356Z,21.00
2019-04-10T02:59:39.897Z,21.00
2019-04-10T03:02:08.664Z,21.00
2019-04-10T03:04:37.331Z,21.00
2019-04-10T03:07:07.390Z,21.00
2019-04-10T03:09:49.713Z,21.00
2019-04-10T03:12:06.385Z,21.00
2019-04-10T03:14:36.786Z,21.00
2019-04-10T03:17:06.007Z,20.90
2019-04-10T03:19:34.447Z,21.00
2019-04-10T03:22:03.795Z,20.90
2019-04-10T03:24:32.397Z,20.90
2019-04-10T03:27:01.762Z,20.90
2019-04-10T03:29:30.189Z,20.90
2019-04-10T03:32:01.906Z,20.90
2019-04-10T03:34:33.723Z,20.80
2019-04-10T03:37:01.659Z,20.80
2019-04-10T03:39:33.518Z,20.80
2019-04-10T03:42:00.976Z,20.80
2019-04-10T03:44:30.222Z,20.80
2019-04-10T03:46:58.813Z,20.80
2019-04-10T03:49:27.622Z,20.80
2019-04-10T03:51:56.723Z,20.80
2019-04-10T03:54:28.092Z,20.80
2019-04-10T03:56:56.539Z,20.80
2019-04-10T03:59:24.810Z,20.70
2019-04-10T04:01:53.433Z,20.80
2019-04-10T04:04:21.891Z,20.80
2019-04-10T04:06:50.299Z,20.80
2019-04-10T04:09:19.609Z,20.70
2019-04-10T04:11:48.181Z,20.80
2019-04-10T04:14:16.601Z,20.70
2019-04-10T04:16:44.933Z,20.70
2019-04-10T04:19:13.617Z,20.70
2019-04-10T04:21:41.921Z,20.80
2019-04-10T04:24:11.348Z,20.80
2019-04-10T04:26:39.807Z,20.80
2019-04-10T04:29:08.203Z,20.80
2019-04-10T04:31:36.787Z,20.80
2019-04-10T04:34:06.146Z,20.80
2019-04-10T04:36:35.221Z,20.80
2019-04-10T04:39:18.012Z,20.80
2019-04-10T04:41:35.953Z,20.70
2019-04-10T04:44:04.286Z,20.80
2019-04-10T04:46:32.894Z,20.70
2019-04-10T04:49:02.060Z,20.70
2019-04-10T04:51:30.644Z,20.70
2019-04-10T04:53:59.024Z,20.70
2019-04-10T04:56:28.214Z,20.70
2019-04-10T04:58:56.588Z,20.70
2019-04-10T05:01:25.214Z,20.70
2019-04-10T05:03:53.518Z,20.70
2019-04-10T05:06:22.255Z,20.70
2019-04-10T05:08:50.799Z,20.70
2019-04-10T05:11:20.082Z,20.70
2019-04-10T05:13:49.076Z,20.70
2019-04-10T05:16:18.643Z,20.60
2019-04-10T05:18:50.410Z,20.60
2019-04-10T05:21:19.171Z,20.60
2019-04-10T05:23:47.604Z,20.60
2019-04-10T05:26:16.567Z,20.60
2019-04-10T05:28:45.272Z,20.60
2019-04-10T05:31:13.557Z,20.60
2019-04-10T05:33:42.144Z,20.60
2019-04-10T05:36:10.461Z,20.60
2019-04-10T05:38:38.830Z,20.60
2019-04-10T05:41:07.129Z,20.60
2019-04-10T05:43:36.225Z,20.60
2019-04-10T05:46:04.924Z,20.60
2019-04-10T05:48:33.740Z,20.60
2019-04-10T05:51:05.639Z,20.60
2019-04-10T05:53:32.487Z,20.60
2019-04-10T05:56:01.519Z,20.60
2019-04-10T05:58:31.415Z,20.60
2019-04-10T06:01:01.425Z,20.60
2019-04-10T06:03:30.312Z,20.60
2019-04-10T06:06:01.002Z,20.60
2019-04-10T06:08:28.713Z,20.60
2019-04-10T06:10:58.133Z,20.60
2019-04-10T06:13:27.674Z,20.60
2019-04-10T06:15:56.450Z,20.60
2019-04-10T06:18:25.006Z,20.60
2019-04-10T06:20:54.488Z,20.60
2019-04-10T06:23:23.399Z,20.60
2019-04-10T06:25:52.125Z,20.60
2019-04-10T06:28:21.346Z,20.60
2019-04-10T06:30:50.582Z,20.60
2019-04-10T06:33:20.027Z,20.60
2019-04-10T06:35:48.961Z,20.60
2019-04-10T06:38:17.412Z,20.60
2019-04-10T06:40:46.101Z,20.70
2019-04-10T06:43:15.018Z,20.60
2019-04-10T06:45:44.023Z,20.60
2019-04-10T06:48:13.058Z,20.70
2019-04-10T06:50:41.780Z,20.70
2019-04-10T06:53:10.435Z,20.70
2019-04-10T06:55:38.721Z,20.70
2019-04-10T06:58:07.871Z,20.70
2019-04-10T07:00:36.929Z,20.70
2019-04-10T07:03:06.506Z,20.70
2019-04-10T07:05:41.372Z,20.70
2019-04-10T07:08:12.398Z,20.70
2019-04-10T07:10:48.260Z,20.70
2019-04-10T07:13:08.617Z,20.70
2019-04-10T07:15:35.804Z,20.70
2019-04-10T07:18:04.575Z,20.80
2019-04-10T07:20:33.691Z,20.70
2019-04-10T07:23:03.042Z,20.80
2019-04-10T07:25:32.023Z,20.80
2019-04-10T07:28:01.338Z,20.80
2019-04-10T07:30:30.551Z,20.80
2019-04-10T07:32:59.333Z,20.80
2019-04-10T07:35:28.608Z,20.80
2019-04-10T07:37:58.486Z,20.90
2019-04-10T07:40:28.308Z,20.90
2019-04-10T07:42:57.054Z,20.90
2019-04-10T07:45:27.099Z,20.90
2019-04-10T07:47:55.948Z,20.90
2019-04-10T07:50:24.323Z,21.00
2019-04-10T07:52:52.640Z,20.90
2019-04-10T07:55:22.370Z,21.00
2019-04-10T07:57:51.760Z,21.00
2019-04-10T08:00:20.498Z,21.00
2019-04-10T08:02:49.167Z,21.00
2019-04-10T08:05:18.871Z,21.00
2019-04-10T08:07:47.332Z,21.00
2019-04-10T08:10:15.999Z,21.10
2019-04-10T08:12:49.061Z,21.00
2019-04-10T08:15:14.395Z,21.00
2019-04-10T08:17:42.977Z,21.10
2019-04-10T08:20:11.548Z,21.10
2019-04-10T08:22:40.130Z,21.10
2019-04-10T08:25:08.937Z,21.20
2019-04-10T08:27:38.491Z,21.20
2019-04-10T08:30:08.540Z,21.20
2019-04-10T08:32:51.025Z,21.20
2019-04-10T08:35:07.505Z,21.20
2019-04-10T08:37:36.790Z,21.30
2019-04-10T08:40:07.464Z,21.30
2019-04-10T08:42:37.323Z,21.30
2019-04-10T08:45:07.122Z,21.30
2019-04-10T08:47:35.803Z,21.30
2019-04-10T08:50:05.664Z,21.40
2019-04-10T08:52:34.722Z,21.40
2019-04-10T08:55:03.847Z,21.40
2019-04-10T08:57:32.218Z,21.40
2019-04-10T09:00:00.523Z,21.40
2019-04-10T09:02:28.810Z,21.40
2019-04-10T09:04:57.333Z,21.50
2019-04-10T09:07:26.353Z,21.50
2019-04-10T09:09:54.730Z,21.50
2019-04-10T09:12:23.954Z,21.60
2019-04-10T09:14:52.311Z,21.50
2019-04-10T09:17:21.467Z,21.60
2019-04-10T09:19:50.118Z,21.60
2019-04-10T09:22:18.413Z,21.60
2019-04-10T09:24:46.776Z,21.70
2019-04-10T09:27:15.188Z,21.70
2019-04-10T09:29:44.528Z,21.70
2019-04-10T09:32:12.929Z,21.70
2019-04-10T09:34:42.471Z,21.70
2019-04-10T09:37:11.950Z,21.80
2019-04-10T09:39:41.298Z,21.80
2019-04-10T09:42:10.660Z,21.80
2019-04-10T09:44:40.080Z,21.80
2019-04-10T09:47:09.710Z,21.90
2019-04-10T09:49:43.148Z,21.90
2019-04-10T09:52:08.571Z,21.90
2019-04-10T09:54:36.875Z,21.90
2019-04-10T09:57:05.232Z,22.00
2019-04-10T09:59:36.943Z,21.90
2019-04-10T10:02:03.657Z,22.00
2019-04-10T10:04:33.272Z,22.00
2019-04-10T10:07:02.055Z,22.00
2019-04-10T10:09:30.903Z,22.00
2019-04-10T10:11:59.199Z,22.10
2019-04-10T10:14:28.544Z,22.10
2019-04-10T10:16:58.043Z,22.10
2019-04-10T10:19:26.454Z,22.20
2019-04-10T10:21:54.747Z,22.20
2019-04-10T10:24:23.059Z,22.30
2019-04-10T10:26:51.519Z,22.30
2019-04-10T10:29:19.903Z,22.30
2019-04-10T10:31:49.778Z,22.30
2019-04-10T10:34:18.460Z,22.30
2019-04-10T10:36:49.213Z,22.40
2019-04-10T10:39:19.019Z,22.40
2019-04-10T10:41:48.872Z,22.40
2019-04-10T10:44:17.630Z,22.40
2019-04-10T10:46:45.948Z,22.40
2019-04-10T10:49:14.281Z,22.30
2019-04-10T10:51:42.669Z,22.30
2019-04-10T10:54:11.003Z,22.40
2019-04-10T10:56:39.330Z,22.40
2019-04-10T10:59:07.622Z,22.30
2019-04-10T11:01:35.920Z,22.30
2019-04-10T11:04:04.751Z,22.40
2019-04-10T11:06:33.239Z,22.40
2019-04-10T11:09:01.974Z,22.40
2019-04-10T11:11:30.794Z,22.40
2019-04-10T11:13:59.166Z,22.40
2019-04-10T11:16:27.474Z,22.50
2019-04-10T11:18:57.532Z,22.50
2019-04-10T11:21:27.404Z,22.50
2019-04-10T11:23:55.899Z,22.50
2019-04-10T11:26:25.610Z,22.60
2019-04-10T11:28:55.704Z,22.60
2019-04-10T11:31:25.186Z,22.70
2019-04-10T11:33:55.939Z,22.70
2019-04-10T11:36:28.068Z,22.80
2019-04-10T11:39:09.074Z,22.80
2019-04-10T11:41:26.598Z,22.80
2019-04-10T11:43:56.086Z,22.90
2019-04-10T11:46:28.280Z,22.90
2019-04-10T11:48:55.412Z,22.90
2019-04-10T11:51:26.332Z,22.90
2019-04-10T11:56:26.091Z,22.90
2019-04-10T11:58:56.489Z,22.90
2019-04-10T12:01:25.533Z,23.00
2019-04-10T12:03:56.050Z,23.00
2019-04-10T12:06:25.470Z,22.90
2019-04-10T12:11:24.741Z,22.90
2019-04-10T12:13:53.064Z,22.90
2019-04-10T12:16:21.643Z,23.00
2019-04-10T12:18:50.875Z,22.90
2019-04-10T12:21:19.870Z,22.90
2019-04-10T12:23:50.114Z,22.90
2019-04-10T12:26:18.491Z,22.90
2019-04-10T12:28:46.813Z,22.90
2019-04-10T12:31:15.624Z,23.00
2019-04-10T12:33:44.431Z,23.00
2019-04-10T12:36:14.117Z,23.00
2019-04-10T12:38:43.461Z,23.00
2019-04-10T12:41:12.296Z,23.00
2019-04-10T12:43:41.119Z,23.00
2019-04-10T12:46:10.677Z,23.00
2019-04-10T12:48:39.152Z,23.00
2019-04-10T12:51:07.727Z,23.00
2019-04-10T12:53:36.609Z,23.00
2019-04-10T12:56:05.965Z,23.00
2019-04-10T12:58:34.937Z,23.00
2019-04-10T13:01:05.266Z,23.00
2019-04-10T13:03:33.570Z,23.00
2019-04-10T13:06:02.125Z,23.00
2019-04-10T13:08:47.274Z,23.00
2019-04-10T13:11:01.132Z,23.00
2019-04-10T13:13:30.313Z,22.90
2019-04-10T13:15:59.398Z,22.90
2019-04-10T13:18:28.133Z,22.90
2019-04-10T13:20:56.518Z,22.90
2019-04-10T13:23:24.871Z,22.90
2019-04-10T13:25:58.101Z,22.90
2019-04-10T13:28:23.453Z,22.90
2019-04-10T13:30:54.104Z,22.80
2019-04-10T13:33:22.605Z,22.80
2019-04-10T13:35:51.347Z,22.80
2019-04-10T13:38:26.563Z,22.80
2019-04-10T13:40:50.391Z,22.80
2019-04-10T13:43:18.670Z,22.80
2019-04-10T13:45:46.976Z,22.70
2019-04-10T13:48:16.462Z,22.70
2019-04-10T13:50:44.906Z,22.70
2019-04-10T13:53:13.452Z,22.70
2019-04-10T13:55:42.263Z,22.70
2019-04-10T13:58:10.788Z,22.70
2019-04-10T14:00:59.218Z,22.70
2019-04-10T14:03:28.041Z,22.70
2019-04-10T14:05:57.084Z,22.70
2019-04-10T14:08:41.540Z,22.70
2019-04-10T14:10:57.210Z,22.70
2019-04-10T14:13:26.045Z,22.60
2019-04-10T14:15:54.594Z,22.60
2019-04-10T14:18:24.178Z,22.60
2019-04-10T14:20:53.405Z,22.60
2019-04-10T14:23:23.545Z,22.60
2019-04-10T14:25:53.482Z,22.60
2019-04-10T14:28:23.462Z,22.60
2019-04-10T14:30:53.738Z,22.60
2019-04-10T14:33:23.318Z,22.60
2019-04-10T14:35:52.115Z,22.60
2019-04-10T14:38:21.151Z,22.60
2019-04-10T14:40:49.576Z,22.50
2019-04-10T14:43:18.729Z,22.50
2019-04-10T14:45:48.021Z,22.50
2019-04-10T14:48:16.890Z,22.50
2019-04-10T14:50:46.993Z,22.50
2019-04-10T14:53:15.431Z,22.50
2019-04-10T14:55:43.943Z,22.50
2019-04-10T14:58:20.603Z,22.40
2019-04-10T15:00:47.015Z,22.40
2019-04-10T15:03:16.125Z,22.40
2019-04-10T15:05:49.785Z,22.40
2019-04-10T15:08:15.518Z,22.40
2019-04-10T15:10:44.477Z,22.40
2019-04-10T15:13:17.466Z,22.30
2019-04-10T15:15:42.970Z,22.30
2019-04-10T15:18:11.276Z,22.40
2019-04-10T15:20:39.731Z,22.30
2019-04-10T15:23:08.412Z,22.30
2019-04-10T15:25:37.458Z,22.30
2019-04-10T15:28:06.422Z,22.30
2019-04-10T15:30:34.874Z,22.30
2019-04-10T15:33:04.453Z,22.30
2019-04-10T15:35:33.001Z,22.30
2019-04-10T15:38:01.989Z,22.30
2019-04-10T15:40:30.391Z,22.30
2019-04-10T15:42:58.787Z,22.20
2019-04-10T15:45:28.111Z,22.20
2019-04-10T15:47:58.696Z,22.20
2019-04-10T15:50:26.645Z,22.20
2019-04-10T15:52:55.794Z,22.20
2019-04-10T15:55:25.743Z,22.10
2019-04-10T15:57:57.883Z,22.10
2019-04-10T16:00:25.353Z,22.10
2019-04-10T16:02:54.042Z,22.10
2019-04-10T16:05:23.667Z,22.10
2019-04-10T16:07:55.333Z,22.10
2019-04-10T16:10:33.943Z,22.10
2019-04-10T16:13:16.632Z,22.10
2019-04-10T16:15:45.253Z,22.10
2019-04-10T16:18:21.151Z,22.10
2019-04-10T16:20:51.114Z,22.10
2019-04-10T16:23:24.118Z,22.10
2019-04-10T16:25:54.446Z,22.10
2019-04-10T16:28:23.293Z,22.10
2019-04-10T16:30:51.726Z,22.10
2019-04-10T16:33:20.553Z,22.10
2019-04-10T16:35:48.856Z,22.10
2019-04-10T16:38:17.319Z,22.10
2019-04-10T16:40:46.040Z,22.10
2019-04-10T16:43:14.553Z,22.10
2019-04-10T16:45:43.126Z,22.20
2019-04-10T16:48:11.760Z,22.20
2019-04-10T16:50:40.052Z,22.20
2019-04-10T16:53:08.612Z,22.20
2019-04-10T16:55:38.386Z,22.20
2019-04-10T16:58:07.588Z,22.20
2019-04-10T17:00:36.196Z,22.20
2019-04-10T17:03:04.726Z,22.20
2019-04-10T17:05:35.020Z,22.20
2019-04-10T17:08:03.670Z,22.20
2019-04-10T17:10:32.421Z,22.10
2019-04-10T17:13:00.867Z,22.10
2019-04-10T17:15:30.207Z,22.10
2019-04-10T17:17:58.996Z,22.10
2019-04-10T17:20:28.663Z,22.10
2019-04-10T17:22:58.388Z,22.00
2019-04-10T17:25:26.915Z,22.00
2019-04-10T17:27:56.333Z,22.00
2019-04-10T17:30:25.475Z,22.00
2019-04-10T17:32:54.328Z,22.00
2019-04-10T17:35:23.368Z,22.00
2019-04-10T17:37:52.187Z,22.00
2019-04-10T17:40:30.015Z,22.00
2019-04-10T17:42:51.035Z,21.90
2019-04-10T17:45:20.603Z,21.90
2019-04-10T17:47:49.633Z,21.90
2019-04-10T17:50:20.292Z,22.00
2019-04-10T17:52:49.162Z,22.00
2019-04-10T17:55:17.654Z,22.00
2019-04-10T17:57:49.147Z,22.00
2019-04-10T18:00:22.981Z,22.00
2019-04-10T18:02:51.392Z,21.90
2019-04-10T18:05:20.384Z,21.90
2019-04-10T18:07:48.907Z,21.90
2019-04-10T18:10:17.362Z,21.90
2019-04-10T18:12:46.062Z,21.90
2019-04-10T18:15:15.756Z,21.90
2019-04-10T18:17:44.475Z,21.90
2019-04-10T18:20:12.846Z,21.80
2019-04-10T18:22:42.739Z,21.80
2019-04-10T18:25:11.920Z,21.80
2019-04-10T18:27:41.110Z,21.80
2019-04-10T18:30:09.996Z,21.80
2019-04-10T18:32:38.595Z,21.80
2019-04-10T18:35:08.758Z,21.80
2019-04-10T18:37:40.904Z,21.80
2019-04-10T18:40:10.757Z,21.80
2019-04-10T18:42:39.902Z,21.80
2019-04-10T18:45:28.112Z,21.80
2019-04-10T18:47:56.524Z,21.80
2019-04-10T18:50:24.908Z,21.80
2019-04-10T18:52:53.932Z,21.80
2019-04-10T18:55:22.610Z,21.80
2019-04-10T18:57:51.453Z,21.70
2019-04-10T19:00:21.845Z,21.70
2019-04-10T19:02:52.924Z,21.70
2019-04-10T19:05:23.512Z,21.70
2019-04-10T19:07:51.975Z,21.70
2019-04-10T19:10:20.294Z,21.70
2019-04-10T19:12:48.823Z,21.80
2019-04-10T19:15:17.347Z,21.70
2019-04-10T19:17:46.745Z,21.70
2019-04-10T19:20:15.932Z,21.70
2019-04-10T19:22:44.729Z,21.70
2019-04-10T19:25:14.566Z,21.70
2019-04-10T19:27:44.375Z,21.70
2019-04-10T19:30:23.519Z,21.70
2019-04-10T19:32:51.985Z,21.70
2019-04-10T19:35:21.146Z,21.70
2019-04-10T19:37:51.490Z,21.70
2019-04-10T19:40:21.222Z,21.70
2019-04-10T19:42:51.420Z,21.70
2019-04-10T19:45:20.458Z,21.70
2019-04-10T19:47:48.939Z,21.60
2019-04-10T19:50:17.671Z,21.70
2019-04-10T19:52:46.761Z,21.70
2019-04-10T19:55:15.637Z,21.70
2019-04-10T19:57:44.033Z,21.60
2019-04-10T20:00:12.622Z,21.60
2019-04-10T20:02:41.732Z,21.60
2019-04-10T20:05:10.140Z,21.60
2019-04-10T20:07:38.670Z,21.60
2019-04-10T20:10:07.370Z,21.60
2019-04-10T20:12:36.972Z,21.50
2019-04-10T20:15:07.213Z,21.60
2019-04-10T20:17:36.468Z,21.50
2019-04-10T20:20:08.050Z,21.60
2019-04-10T20:22:39.117Z,21.60
2019-04-10T20:25:08.282Z,21.60
2019-04-10T20:27:36.780Z,21.50
2019-04-10T20:30:08.074Z,21.60
2019-04-10T20:32:36.444Z,21.60
2019-04-10T20:35:05.754Z,21.60
2019-04-10T20:37:34.538Z,21.50
2019-04-10T20:40:03.493Z,21.50
2019-04-10T20:42:32.233Z,21.50
2019-04-10T20:45:00.903Z,21.50
2019-04-10T20:47:29.639Z,21.50
2019-04-10T20:49:57.950Z,21.50
2019-04-10T20:52:26.357Z,21.50
2019-04-10T20:54:55.273Z,21.50
2019-04-10T20:57:23.699Z,21.50
2019-04-10T20:59:53.225Z,21.50
2019-04-10T21:02:22.324Z,21.50
2019-04-10T21:04:56.395Z,21.40
2019-04-10T21:07:21.357Z,21.40
2019-04-10T21:09:50.321Z,21.30
2019-04-10T21:12:21.023Z,21.30
2019-04-10T21:14:49.506Z,21.30
2019-04-10T21:17:18.177Z,21.30
2019-04-10T21:19:46.549Z,21.30
2019-04-10T21:22:15.844Z,21.30
2019-04-10T21:24:45.549Z,21.30
2019-04-10T21:27:14.072Z,21.30
2019-04-10T21:29:46.819Z,21.30
2019-04-10T21:32:17.260Z,21.20
2019-04-10T21:34:47.334Z,21.20
2019-04-10T21:37:15.885Z,21.20
2019-04-10T21:39:45.585Z,21.20
2019-04-10T21:42:20.101Z,21.20
2019-04-10T21:44:44.961Z,21.20
2019-04-10T21:47:13.625Z,21.20
2019-04-10T21:49:42.264Z,21.20
2019-04-10T21:52:11.053Z,21.20
2019-04-10T21:54:48.517Z,21.20
2019-04-10T21:57:09.883Z,21.20
2019-04-10T21:59:38.894Z,21.20
2019-04-10T22:02:07.853Z,21.20
2019-04-10T22:04:36.228Z,21.10
2019-04-10T22:07:25.693Z,21.20
2019-04-10T22:10:05.554Z,21.20
2019-04-10T22:12:39.592Z,21.20
2019-04-10T22:15:08.620Z,21.20
2019-04-10T22:17:38.297Z,21.20
2019-04-10T22:20:07.572Z,21.30
2019-04-10T22:22:37.108Z,21.30
2019-04-10T22:25:07.404Z,21.30
2019-04-10T22:27:35.954Z,21.30
2019-04-10T22:30:06.389Z,21.30
2019-04-10T22:32:35.320Z,21.30
2019-04-10T22:35:05.575Z,21.30
2019-04-10T22:37:35.615Z,21.30
2019-04-10T22:40:06.489Z,21.30
2019-04-10T22:42:41.675Z,21.20
2019-04-10T22:45:12.223Z,21.30
2019-04-10T22:47:41.380Z,21.20
2019-04-10T22:50:10.651Z,21.20
2019-04-10T22:52:40.100Z,21.20
2019-04-10T22:55:09.156Z,21.10
2019-04-10T22:57:39.780Z,21.10
2019-04-10T23:00:07.830Z,21.10
2019-04-10T23:02:36.149Z,21.10
2019-04-10T23:05:04.708Z,21.10
2019-04-10T23:07:33.641Z,21.10
2019-04-10T23:10:02.608Z,21.00
2019-04-10T23:12:32.040Z,21.00
2019-04-10T23:15:00.831Z,21.00
2019-04-10T23:17:29.266Z,21.00
2019-04-10T23:19:58.528Z,21.00
2019-04-10T23:22:27.368Z,20.90
2019-04-10T23:24:58.214Z,20.90
2019-04-10T23:27:26.805Z,20.90
2019-04-10T23:29:55.507Z,20.90
2019-04-10T23:32:23.810Z,20.90
2019-04-10T23:34:52.731Z,20.80
2019-04-10T23:37:21.050Z,20.80
2019-04-10T23:39:51.000Z,20.80
2019-04-10T23:42:19.588Z,20.80
2019-04-10T23:44:47.902Z,20.80
2019-04-10T23:47:18.108Z,20.80
2019-04-10T23:49:47.844Z,20.80
2019-04-10T23:52:16.285Z,20.80
2019-04-10T23:54:45.800Z,20.70
2019-04-10T23:57:14.224Z,20.70
2019-04-10T23:59:42.671Z,20.70
